createdAt,value
2017-04-12T00:00:36.353Z,1011.86
2017-04-12T00:01:16.788Z,1011.85
2017-04-12T00:01:57.259Z,1011.86
2017-04-12T00:02:37.720Z,1011.83
2017-04-12T00:03:18.184Z,1011.87
2017-04-12T00:03:58.634Z,1011.82
2017-04-12T00:04:39.083Z,1011.84
2017-04-12T00:05:19.513Z,1011.82
2017-04-12T00:07:47.452Z,1011.85
2017-04-12T00:08:27.895Z,1011.84
2017-04-12T00:09:08.360Z,1011.88
2017-04-12T00:09:48.822Z,1011.86
2017-04-12T00:10:29.264Z,1011.89
2017-04-12T00:11:09.716Z,1011.91
2017-04-12T00:11:50.209Z,1011.87
2017-04-12T00:12:30.673Z,1011.89
2017-04-12T00:14:28.321Z,1011.89
2017-04-12T00:15:08.752Z,1011.91
2017-04-12T00:15:49.251Z,1011.89
2017-04-12T00:16:29.725Z,1011.9
2017-04-12T00:17:10.159Z,1011.9
2017-04-12T00:17:50.617Z,1011.91
2017-04-12T00:18:31.098Z,1011.92
2017-04-12T00:19:11.538Z,1011.91
2017-04-12T00:21:29.415Z,1011.81
2017-04-12T00:22:09.861Z,1011.8
2017-04-12T00:22:50.346Z,1011.79
2017-04-12T00:23:30.778Z,1011.78
2017-04-12T00:24:11.225Z,1011.81
2017-04-12T00:26:23.918Z,1011.75
2017-04-12T00:27:04.342Z,1011.77
2017-04-12T00:27:44.797Z,1011.72
2017-04-12T00:28:25.252Z,1011.68
2017-04-12T00:29:05.708Z,1011.69
2017-04-12T00:29:46.193Z,1011.68
2017-04-12T00:30:26.680Z,1011.68
2017-04-12T00:31:07.177Z,1011.65
2017-04-12T00:31:47.615Z,1011.69
2017-04-12T00:32:28.100Z,1011.66
2017-04-12T00:33:08.592Z,1011.71
2017-04-12T00:33:49.090Z,1011.68
2017-04-12T00:34:29.533Z,1011.66
2017-04-12T00:35:09.983Z,1011.66
2017-04-12T00:35:50.415Z,1011.67
2017-04-12T00:36:30.898Z,1011.61
2017-04-12T00:37:11.319Z,1011.62
2017-04-12T00:37:51.763Z,1011.64
2017-04-12T00:39:49.373Z,1011.59
2017-04-12T00:40:29.859Z,1011.59
2017-04-12T00:41:10.287Z,1011.61
2017-04-12T00:41:50.729Z,1011.58
2017-04-12T00:42:31.185Z,1011.63
2017-04-12T00:43:11.642Z,1011.62
2017-04-12T00:43:52.096Z,1011.62
2017-04-12T00:44:32.564Z,1011.56
2017-04-12T00:45:13.015Z,1011.6
2017-04-12T00:45:53.475Z,1011.61
2017-04-12T00:46:33.923Z,1011.64
2017-04-12T00:47:14.380Z,1011.63
2017-04-12T00:47:54.821Z,1011.63
2017-04-12T00:48:35.274Z,1011.59
2017-04-12T00:49:15.699Z,1011.6
2017-04-12T00:51:43.635Z,1011.57
2017-04-12T00:52:24.085Z,1011.61
2017-04-12T00:53:04.533Z,1011.64
2017-04-12T00:53:44.992Z,1011.6
2017-04-12T00:55:42.603Z,1011.6
2017-04-12T00:56:23.081Z,1011.62
2017-04-12T00:57:03.512Z,1011.64
2017-04-12T00:57:43.952Z,1011.63
2017-04-12T00:58:24.421Z,1011.68
2017-04-12T00:59:04.868Z,1011.65
2017-04-12T00:59:45.304Z,1011.66
2017-04-12T01:00:25.766Z,1011.62
2017-04-12T01:01:06.233Z,1011.61
2017-04-12T01:01:46.681Z,1011.58
2017-04-12T01:03:45.158Z,1011.57
2017-04-12T01:04:25.576Z,1011.59
2017-04-12T01:05:06.090Z,1011.58
2017-04-12T01:05:46.569Z,1011.56
2017-04-12T01:06:27.011Z,1011.6
2017-04-12T01:07:07.488Z,1011.62
2017-04-12T01:07:47.951Z,1011.58
2017-04-12T01:08:28.473Z,1011.56
2017-04-12T01:09:08.928Z,1011.54
2017-04-12T01:09:49.384Z,1011.55
2017-04-12T01:10:29.832Z,1011.51
2017-04-12T01:11:10.282Z,1011.54
2017-04-12T01:11:50.740Z,1011.52
2017-04-12T01:12:31.213Z,1011.51
2017-04-12T01:13:11.663Z,1011.5
2017-04-12T01:15:09.371Z,1011.43
2017-04-12T01:15:49.816Z,1011.47
2017-04-12T01:16:30.283Z,1011.45
2017-04-12T01:17:10.780Z,1011.45
2017-04-12T01:17:51.222Z,1011.45
2017-04-12T01:18:31.640Z,1011.46
2017-04-12T01:20:49.495Z,1011.38
2017-04-12T01:21:29.911Z,1011.36
2017-04-12T01:22:10.333Z,1011.38
2017-04-12T01:22:50.783Z,1011.32
2017-04-12T01:24:48.465Z,1011.24
2017-04-12T01:25:28.831Z,1011.23
2017-04-12T01:26:09.289Z,1011.18
2017-04-12T01:28:22.028Z,1011.11
2017-04-12T01:29:02.509Z,1011.1
2017-04-12T01:29:42.965Z,1011.06
2017-04-12T01:30:23.436Z,1011.07
2017-04-12T01:31:03.915Z,1011.03
2017-04-12T01:31:44.381Z,1011.02
2017-04-12T01:32:24.805Z,1010.99
2017-04-12T01:33:05.246Z,1011.02
2017-04-12T01:33:45.690Z,1010.98
2017-04-12T01:36:13.959Z,1010.95
2017-04-12T01:36:54.379Z,1010.94
2017-04-12T01:37:34.836Z,1010.94
2017-04-12T01:38:15.266Z,1010.94
2017-04-12T01:38:55.701Z,1010.93
2017-04-12T01:39:36.201Z,1010.91
2017-04-12T01:40:16.619Z,1010.85
2017-04-12T01:40:57.091Z,1010.89
2017-04-12T01:41:37.545Z,1010.88
2017-04-12T01:42:18.054Z,1010.86
2017-04-12T01:44:35.890Z,1010.83
2017-04-12T01:45:16.352Z,1010.84
2017-04-12T01:45:56.806Z,1010.79
2017-04-12T01:46:37.274Z,1010.82
2017-04-12T01:47:17.716Z,1010.8
2017-04-12T01:51:08.496Z,1010.75
2017-04-12T01:51:48.966Z,1010.71
2017-04-12T01:54:06.724Z,1010.66
2017-04-12T01:54:47.225Z,1010.66
2017-04-12T01:56:44.834Z,1010.61
2017-04-12T01:57:25.274Z,1010.59
2017-04-12T01:58:05.667Z,1010.6
2017-04-12T01:59:58.282Z,1010.63
2017-04-12T02:01:50.901Z,1010.61
2017-04-12T02:02:31.365Z,1010.58
2017-04-12T02:03:11.811Z,1010.58
2017-04-12T02:03:52.271Z,1010.57
2017-04-12T02:04:32.743Z,1010.59
2017-04-12T02:05:13.181Z,1010.55
2017-04-12T02:05:53.655Z,1010.53
2017-04-12T02:06:34.086Z,1010.48
2017-04-12T02:07:14.521Z,1010.47
2017-04-12T02:09:27.278Z,1010.46
2017-04-12T02:11:55.155Z,1010.46
2017-04-12T02:12:35.580Z,1010.46
2017-04-12T02:13:16.621Z,1010.49
2017-04-12T02:13:57.055Z,1010.47
2017-04-12T02:15:49.631Z,1010.53
2017-04-12T02:16:30.136Z,1010.52
2017-04-12T02:17:10.585Z,1010.46
2017-04-12T02:17:51.044Z,1010.48
2017-04-12T02:18:31.546Z,1010.47
2017-04-12T02:19:12.059Z,1010.49
2017-04-12T02:19:52.518Z,1010.5
2017-04-12T02:20:32.987Z,1010.45
2017-04-12T02:21:13.419Z,1010.45
2017-04-12T02:21:53.884Z,1010.41
2017-04-12T02:22:34.332Z,1010.41
2017-04-12T02:23:14.795Z,1010.36
2017-04-12T02:23:55.236Z,1010.32
2017-04-12T02:24:35.742Z,1010.31
2017-04-12T02:26:53.593Z,1010.28
2017-04-12T02:27:34.051Z,1010.26
2017-04-12T02:28:14.546Z,1010.28
2017-04-12T02:28:55.072Z,1010.24
2017-04-12T02:29:35.503Z,1010.25
2017-04-12T02:31:28.045Z,1010.21
2017-04-12T02:32:08.440Z,1010.22
2017-04-12T02:32:48.925Z,1010.19
2017-04-12T02:33:29.376Z,1010.2
2017-04-12T02:34:09.850Z,1010.23
2017-04-12T02:34:50.324Z,1010.27
2017-04-12T02:35:30.758Z,1010.22
2017-04-12T02:37:43.491Z,1010.19
2017-04-12T02:38:23.960Z,1010.22
2017-04-12T02:39:04.422Z,1010.15
2017-04-12T02:39:44.877Z,1010.15
2017-04-12T02:40:25.323Z,1010.14
2017-04-12T02:41:05.823Z,1010.12
2017-04-12T02:41:46.218Z,1010.12
2017-04-12T02:44:14.159Z,1010.1
2017-04-12T02:44:54.612Z,1010.14
2017-04-12T02:45:35.218Z,1010.14
2017-04-12T02:46:15.604Z,1010.13
2017-04-12T02:46:56.021Z,1010.14
2017-04-12T02:47:36.486Z,1010.18
2017-04-12T02:48:16.901Z,1010.15
2017-04-12T02:48:57.355Z,1010.2
2017-04-12T02:49:37.804Z,1010.12
2017-04-12T02:50:18.253Z,1010.15
2017-04-12T02:50:58.700Z,1010.14
2017-04-12T02:53:11.478Z,1010.09
2017-04-12T02:53:51.912Z,1010.06
2017-04-12T02:54:32.394Z,1010.06
2017-04-12T02:55:12.849Z,1010.03
2017-04-12T02:55:53.300Z,1010.02
2017-04-12T02:56:33.741Z,1010.03
2017-04-12T02:57:14.223Z,1010
2017-04-12T02:57:54.686Z,1009.98
2017-04-12T02:58:35.145Z,1009.97
2017-04-12T03:00:47.882Z,1009.97
2017-04-12T03:01:28.364Z,1009.95
2017-04-12T03:02:08.830Z,1009.94
2017-04-12T03:02:49.297Z,1009.98
2017-04-12T03:03:29.754Z,1009.96
2017-04-12T03:04:10.228Z,1009.96
2017-04-12T03:04:50.665Z,1009.96
2017-04-12T03:05:31.098Z,1009.99
2017-04-12T03:06:11.583Z,1009.95
2017-04-12T03:06:52.038Z,1009.94
2017-04-12T03:07:32.549Z,1009.94
2017-04-12T03:08:13.026Z,1009.94
2017-04-12T03:08:53.478Z,1009.96
2017-04-12T03:09:33.943Z,1009.93
2017-04-12T03:10:14.389Z,1009.93
2017-04-12T03:10:54.835Z,1009.96
2017-04-12T03:12:52.464Z,1009.9
2017-04-12T03:13:32.887Z,1009.95
2017-04-12T03:14:13.358Z,1009.9
2017-04-12T03:16:11.018Z,1009.93
2017-04-12T03:16:51.443Z,1009.9
2017-04-12T03:17:31.941Z,1009.95
2017-04-12T03:18:12.406Z,1009.94
2017-04-12T03:18:52.852Z,1009.9
2017-04-12T03:19:33.301Z,1009.89
2017-04-12T03:20:13.755Z,1009.92
2017-04-12T03:20:54.242Z,1009.9
2017-04-12T03:21:34.702Z,1009.9
2017-04-12T03:22:15.141Z,1009.89
2017-04-12T03:22:55.593Z,1009.85
2017-04-12T03:23:36.015Z,1009.84
2017-04-12T03:24:16.453Z,1009.8
2017-04-12T03:24:56.943Z,1009.8
2017-04-12T03:25:37.390Z,1009.8
2017-04-12T03:26:17.879Z,1009.8
2017-04-12T03:26:58.321Z,1009.77
2017-04-12T03:27:38.778Z,1009.78
2017-04-12T03:28:19.235Z,1009.78
2017-04-12T03:28:59.695Z,1009.76
2017-04-12T03:29:40.161Z,1009.77
2017-04-12T03:30:20.601Z,1009.79
2017-04-12T03:31:01.043Z,1009.78
2017-04-12T03:31:41.495Z,1009.8
2017-04-12T03:32:22.063Z,1009.8
2017-04-12T03:33:02.653Z,1009.78
2017-04-12T03:33:43.103Z,1009.79
2017-04-12T03:34:23.549Z,1009.76
2017-04-12T03:35:04.020Z,1009.81
2017-04-12T03:35:44.433Z,1009.8
2017-04-12T03:36:24.911Z,1009.8
2017-04-12T03:38:42.719Z,1009.8
2017-04-12T03:39:23.201Z,1009.81
2017-04-12T03:40:03.663Z,1009.81
2017-04-12T03:40:44.111Z,1009.83
2017-04-12T03:41:24.567Z,1009.84
2017-04-12T03:43:52.486Z,1009.81
2017-04-12T03:44:32.940Z,1009.8
2017-04-12T03:45:13.392Z,1009.77
2017-04-12T03:45:53.838Z,1009.76
2017-04-12T03:46:34.296Z,1009.77
2017-04-12T03:47:14.762Z,1009.78
2017-04-12T03:47:55.187Z,1009.76
2017-04-12T03:48:35.684Z,1009.78
2017-04-12T03:49:16.158Z,1009.75
2017-04-12T03:49:56.631Z,1009.78
2017-04-12T03:50:37.071Z,1009.77
2017-04-12T03:51:18.497Z,1009.78
2017-04-12T03:51:58.866Z,1009.74
2017-04-12T03:52:39.303Z,1009.73
2017-04-12T03:53:19.765Z,1009.78
2017-04-12T03:54:00.221Z,1009.75
2017-04-12T03:54:40.678Z,1009.74
2017-04-12T03:55:21.137Z,1009.75
2017-04-12T03:56:01.591Z,1009.73
2017-04-12T03:56:42.039Z,1009.76
2017-04-12T03:57:22.496Z,1009.74
2017-04-12T03:58:03.009Z,1009.74
2017-04-12T03:58:43.488Z,1009.77
2017-04-12T03:59:23.920Z,1009.74
2017-04-12T04:00:04.343Z,1009.81
2017-04-12T04:00:44.753Z,1009.8
2017-04-12T04:01:25.196Z,1009.81
2017-04-12T04:03:17.750Z,1009.81
2017-04-12T04:03:58.171Z,1009.81
2017-04-12T04:04:38.603Z,1009.83
2017-04-12T04:05:19.038Z,1009.82
2017-04-12T04:05:59.490Z,1009.81
2017-04-12T04:06:39.959Z,1009.79
2017-04-12T04:08:37.622Z,1009.81
2017-04-12T04:09:18.104Z,1009.83
2017-04-12T04:09:58.576Z,1009.84
2017-04-12T04:10:39.080Z,1009.85
2017-04-12T04:11:19.553Z,1009.86
2017-04-12T04:12:00.070Z,1009.87
2017-04-12T04:12:40.513Z,1009.88
2017-04-12T04:13:20.996Z,1009.91
2017-04-12T04:14:01.486Z,1009.95
2017-04-12T04:14:41.978Z,1009.99
2017-04-12T04:15:22.450Z,1009.99
2017-04-12T04:16:02.924Z,1010.01
2017-04-12T04:16:43.410Z,1009.98
2017-04-12T04:17:23.880Z,1010.03
2017-04-12T04:18:04.367Z,1010.06
2017-04-12T04:18:44.849Z,1010.08
2017-04-12T04:19:25.323Z,1010.13
2017-04-12T04:20:05.812Z,1010.13
2017-04-12T04:20:46.302Z,1010.16
2017-04-12T04:21:26.786Z,1010.19
2017-04-12T04:22:07.241Z,1010.11
2017-04-12T04:22:47.691Z,1010.18
2017-04-12T04:23:28.160Z,1010.18
2017-04-12T04:24:08.617Z,1010.17
2017-04-12T04:24:49.097Z,1010.22
2017-04-12T04:25:29.567Z,1010.26
2017-04-12T04:26:10.010Z,1010.26
2017-04-12T04:26:50.479Z,1010.26
2017-04-12T04:27:30.933Z,1010.28
2017-04-12T04:28:11.377Z,1010.24
2017-04-12T04:28:51.815Z,1010.28
2017-04-12T04:29:32.267Z,1010.29
2017-04-12T04:30:12.735Z,1010.28
2017-04-12T04:30:53.206Z,1010.28
2017-04-12T04:31:33.649Z,1010.28
2017-04-12T04:32:14.087Z,1010.3
2017-04-12T04:32:54.530Z,1010.29
2017-04-12T04:35:12.316Z,1010.3
2017-04-12T04:35:52.774Z,1010.3
2017-04-12T04:36:33.260Z,1010.31
2017-04-12T04:37:13.735Z,1010.33
2017-04-12T04:37:54.214Z,1010.33
2017-04-12T04:38:34.692Z,1010.33
2017-04-12T04:39:15.173Z,1010.3
2017-04-12T04:39:55.657Z,1010.29
2017-04-12T04:40:36.141Z,1010.3
2017-04-12T04:41:16.614Z,1010.29
2017-04-12T04:41:57.102Z,1010.28
2017-04-12T04:42:37.572Z,1010.25
2017-04-12T04:43:18.048Z,1010.26
2017-04-12T04:43:58.522Z,1010.23
2017-04-12T04:46:11.300Z,1010.16
2017-04-12T04:46:51.749Z,1010.18
2017-04-12T04:47:32.143Z,1010.18
2017-04-12T04:48:12.583Z,1010.14
2017-04-12T04:48:53.054Z,1010.14
2017-04-12T04:51:05.771Z,1010.19
2017-04-12T04:51:46.260Z,1010.2
2017-04-12T04:52:26.733Z,1010.18
2017-04-12T04:53:07.203Z,1010.23
2017-04-12T04:53:47.702Z,1010.21
2017-04-12T04:54:28.190Z,1010.23
2017-04-12T04:55:08.678Z,1010.24
2017-04-12T04:55:49.174Z,1010.22
2017-04-12T04:56:29.658Z,1010.24
2017-04-12T04:57:10.172Z,1010.28
2017-04-12T04:57:50.607Z,1010.24
2017-04-12T04:58:31.138Z,1010.19
2017-04-12T04:59:11.578Z,1010.21
2017-04-12T04:59:52.063Z,1010.14
2017-04-12T05:00:32.541Z,1010.17
2017-04-12T05:01:13.021Z,1010.14
2017-04-12T05:01:53.510Z,1010.16
2017-04-12T05:02:33.995Z,1010.11
2017-04-12T05:03:14.457Z,1010.12
2017-04-12T05:03:54.907Z,1010.16
2017-04-12T05:04:35.379Z,1010.11
2017-04-12T05:05:15.834Z,1010.12
2017-04-12T05:05:56.259Z,1010.09
2017-04-12T05:06:36.700Z,1010.1
2017-04-12T05:07:17.145Z,1010.05
2017-04-12T05:07:57.630Z,1010.05
2017-04-12T05:08:38.070Z,1010.06
2017-04-12T05:10:55.893Z,1009.97
2017-04-12T05:11:36.344Z,1010.04
2017-04-12T05:12:16.816Z,1009.96
2017-04-12T05:12:57.306Z,1010.04
2017-04-12T05:13:37.777Z,1010.03
2017-04-12T05:14:18.267Z,1010.04
2017-04-12T05:14:58.752Z,1010.02
2017-04-12T05:15:39.218Z,1010.03
2017-04-12T05:16:19.697Z,1010.05
2017-04-12T05:17:00.145Z,1010.06
2017-04-12T05:17:40.658Z,1010.09
2017-04-12T05:18:21.054Z,1010.09
2017-04-12T05:19:01.494Z,1010.12
2017-04-12T05:19:41.925Z,1010.1
2017-04-12T05:20:22.388Z,1010.12
2017-04-12T05:21:02.846Z,1010.13
2017-04-12T05:21:43.347Z,1010.13
2017-04-12T05:22:23.777Z,1010.14
2017-04-12T05:24:41.583Z,1010.12
2017-04-12T05:25:22.084Z,1010.09
2017-04-12T05:26:02.533Z,1010.08
2017-04-12T05:26:43.008Z,1010.07
2017-04-12T05:27:23.466Z,1010.03
2017-04-12T05:29:21.074Z,1010.04
2017-04-12T05:30:01.530Z,1009.96
2017-04-12T05:30:42.002Z,1009.97
2017-04-12T05:31:22.475Z,1009.94
2017-04-12T05:32:02.960Z,1009.98
2017-04-12T05:32:43.445Z,1009.95
2017-04-12T05:33:23.918Z,1009.95
2017-04-12T05:34:04.416Z,1009.94
2017-04-12T05:36:32.403Z,1009.98
2017-04-12T05:37:12.830Z,1010
2017-04-12T05:37:53.302Z,1010
2017-04-12T05:38:33.759Z,1010.06
2017-04-12T05:39:14.182Z,1010.05
2017-04-12T05:39:54.644Z,1010.06
2017-04-12T05:40:35.081Z,1010.04
2017-04-12T05:44:05.110Z,1010.01
2017-04-12T05:44:45.497Z,1010.02
2017-04-12T05:45:25.927Z,1010.06
2017-04-12T05:46:06.421Z,1010.04
2017-04-12T05:46:46.894Z,1010.01
2017-04-12T05:47:27.364Z,1010.04
2017-04-12T05:49:55.334Z,1010.08
2017-04-12T05:50:35.768Z,1010.09
2017-04-12T05:51:16.235Z,1010.11
2017-04-12T05:51:56.732Z,1010.1
2017-04-12T05:52:37.229Z,1010.1
2017-04-12T05:53:17.696Z,1010.11
2017-04-12T05:53:58.157Z,1010.08
2017-04-12T05:54:38.637Z,1010.06
2017-04-12T05:55:19.124Z,1010.11
2017-04-12T05:57:36.928Z,1010.09
2017-04-12T05:58:17.383Z,1010.1
2017-04-12T05:58:57.859Z,1010.12
2017-04-12T05:59:38.359Z,1010.11
2017-04-12T06:01:30.919Z,1010.11
2017-04-12T06:02:11.352Z,1010.13
2017-04-12T06:02:51.764Z,1010.13
2017-04-12T06:03:32.206Z,1010.11
2017-04-12T06:04:12.690Z,1010.15
2017-04-12T06:04:53.178Z,1010.12
2017-04-12T06:06:50.806Z,1010.15
2017-04-12T06:07:31.295Z,1010.1
2017-04-12T06:08:11.760Z,1010.12
2017-04-12T06:08:52.309Z,1010.11
2017-04-12T06:09:32.777Z,1010.1
2017-04-12T06:10:13.239Z,1010.12
2017-04-12T06:10:53.712Z,1010.1
2017-04-12T06:11:34.156Z,1010.11
2017-04-12T06:12:14.603Z,1010.1
2017-04-12T06:14:32.503Z,1010.09
2017-04-12T06:15:12.921Z,1010.12
2017-04-12T06:15:53.407Z,1010.13
2017-04-12T06:16:33.864Z,1010.09
2017-04-12T06:17:14.346Z,1010.09
2017-04-12T06:17:54.833Z,1010.1
2017-04-12T06:18:35.331Z,1010.06
2017-04-12T06:19:15.813Z,1010.11
2017-04-12T06:19:56.314Z,1010.11
2017-04-12T06:20:36.809Z,1010.08
2017-04-12T06:21:17.290Z,1010.08
2017-04-12T06:21:57.788Z,1010.06
2017-04-12T06:22:38.285Z,1010.02
2017-04-12T06:24:51.052Z,1010.05
2017-04-12T06:25:31.481Z,1010.05
2017-04-12T06:26:11.918Z,1010.04
2017-04-12T06:26:52.366Z,1010.07
2017-04-12T06:27:32.885Z,1010.02
2017-04-12T06:28:13.370Z,1010.04
2017-04-12T06:28:53.900Z,1010.07
2017-04-12T06:29:34.363Z,1010.11
2017-04-12T06:30:14.787Z,1010.1
2017-04-12T06:30:55.220Z,1010.18
2017-04-12T06:31:35.713Z,1010.16
2017-04-12T06:32:16.160Z,1010.17
2017-04-12T06:32:56.608Z,1010.18
2017-04-12T06:35:09.375Z,1010.23
2017-04-12T06:35:49.904Z,1010.25
2017-04-12T06:36:30.397Z,1010.18
2017-04-12T06:37:10.886Z,1010.2
2017-04-12T06:37:51.371Z,1010.18
2017-04-12T06:38:31.861Z,1010.2
2017-04-12T06:39:12.356Z,1010.17
2017-04-12T06:39:52.861Z,1010.18
2017-04-12T06:42:10.739Z,1010.16
2017-04-12T06:42:51.133Z,1010.16
2017-04-12T06:43:31.573Z,1010.13
2017-04-12T06:44:12.011Z,1010.13
2017-04-12T06:44:52.462Z,1010.08
2017-04-12T06:45:32.891Z,1010.12
2017-04-12T06:47:50.765Z,1010.07
2017-04-12T06:48:31.188Z,1010.03
2017-04-12T06:49:11.700Z,1010.12
2017-04-12T06:49:52.161Z,1010.07
2017-04-12T06:50:32.628Z,1010.07
2017-04-12T06:51:13.729Z,1010.06
2017-04-12T06:53:31.559Z,1010.02
2017-04-12T06:54:12.870Z,1009.99
2017-04-12T06:56:30.664Z,1009.98
2017-04-12T06:57:11.182Z,1009.99
2017-04-12T06:57:51.626Z,1009.99
2017-04-12T06:58:32.081Z,1010
2017-04-12T06:59:12.509Z,1010
2017-04-12T06:59:52.957Z,1009.98
2017-04-12T07:00:33.409Z,1009.95
2017-04-12T07:01:13.952Z,1009.97
2017-04-12T07:01:54.408Z,1009.92
2017-04-12T07:02:34.922Z,1009.9
2017-04-12T07:03:15.365Z,1009.92
2017-04-12T07:05:07.937Z,1009.91
2017-04-12T07:05:48.417Z,1009.92
2017-04-12T07:06:28.899Z,1009.93
2017-04-12T07:07:09.392Z,1009.93
2017-04-12T07:07:49.861Z,1009.94
2017-04-12T07:08:30.363Z,1009.94
2017-04-12T07:09:10.850Z,1009.95
2017-04-12T07:09:51.321Z,1009.92
2017-04-12T07:10:31.807Z,1009.97
2017-04-12T07:11:12.348Z,1009.92
2017-04-12T07:11:52.837Z,1009.93
2017-04-12T07:12:33.334Z,1009.86
2017-04-12T07:13:13.878Z,1009.88
2017-04-12T07:13:54.387Z,1009.9
2017-04-12T07:14:34.977Z,1009.88
2017-04-12T07:15:15.537Z,1009.89
2017-04-12T07:15:56.062Z,1009.87
2017-04-12T07:16:36.605Z,1009.87
2017-04-12T07:17:17.164Z,1009.87
2017-04-12T07:17:57.715Z,1009.85
2017-04-12T07:18:38.293Z,1009.88
2017-04-12T07:19:18.746Z,1009.82
2017-04-12T07:19:59.232Z,1009.87
2017-04-12T07:20:39.751Z,1009.85
2017-04-12T07:21:20.319Z,1009.91
2017-04-12T07:23:18.156Z,1009.98
2017-04-12T07:23:58.568Z,1009.92
2017-04-12T07:24:39.033Z,1009.99
2017-04-12T07:25:19.560Z,1010
2017-04-12T07:26:00.006Z,1010.04
2017-04-12T07:27:57.630Z,1010.06
2017-04-12T07:28:38.091Z,1010.12
2017-04-12T07:29:18.548Z,1010.08
2017-04-12T07:29:59.027Z,1010.15
2017-04-12T07:30:39.522Z,1010.12
2017-04-12T07:31:20.038Z,1010.17
2017-04-12T07:32:01.324Z,1010.17
2017-04-12T07:32:41.816Z,1010.21
2017-04-12T07:33:22.292Z,1010.2
2017-04-12T07:34:02.803Z,1010.23
2017-04-12T07:34:43.259Z,1010.24
2017-04-12T07:35:23.748Z,1010.27
2017-04-12T07:36:04.224Z,1010.3
2017-04-12T07:36:44.671Z,1010.29
2017-04-12T07:37:25.597Z,1010.34
2017-04-12T07:38:06.178Z,1010.36
2017-04-12T07:38:46.615Z,1010.33
2017-04-12T07:39:27.044Z,1010.37
2017-04-12T07:40:07.587Z,1010.4
2017-04-12T07:40:47.984Z,1010.4
2017-04-12T07:41:28.384Z,1010.33
2017-04-12T07:42:08.852Z,1010.38
2017-04-12T07:42:49.306Z,1010.38
2017-04-12T07:45:08.241Z,1010.35
2017-04-12T07:45:48.687Z,1010.33
2017-04-12T07:46:29.106Z,1010.35
2017-04-12T07:47:09.592Z,1010.36
2017-04-12T07:47:50.123Z,1010.37
2017-04-12T07:48:30.648Z,1010.29
2017-04-12T07:49:11.111Z,1010.3
2017-04-12T07:49:51.624Z,1010.4
2017-04-12T07:50:32.157Z,1010.36
2017-04-12T07:51:12.720Z,1010.32
2017-04-12T07:51:54.061Z,1010.29
2017-04-12T07:52:34.546Z,1010.25
2017-04-12T07:53:15.046Z,1010.24
2017-04-12T07:53:55.522Z,1010.24
2017-04-12T07:54:36.022Z,1010.19
2017-04-12T07:55:16.481Z,1010.23
2017-04-12T07:55:56.913Z,1010.25
2017-04-12T07:56:37.415Z,1010.17
2017-04-12T07:57:18.680Z,1010.21
2017-04-12T07:57:59.203Z,1010.1
2017-04-12T07:58:39.699Z,1010.18
2017-04-12T07:59:20.217Z,1010.13
2017-04-12T08:00:00.760Z,1010.08
2017-04-12T08:00:41.284Z,1010.04
2017-04-12T08:01:21.759Z,1010.12
2017-04-12T08:02:02.367Z,1010.08
2017-04-12T08:02:42.861Z,1010.1
2017-04-12T08:03:23.393Z,1010.13
2017-04-12T08:05:51.373Z,1010.16
2017-04-12T08:06:31.856Z,1010.23
2017-04-12T08:07:12.323Z,1010.3
2017-04-12T08:07:52.795Z,1010.28
2017-04-12T08:08:33.282Z,1010.3
2017-04-12T08:09:13.784Z,1010.18
2017-04-12T08:09:54.266Z,1010.14
2017-04-12T08:10:34.729Z,1010.09
2017-04-12T08:11:15.196Z,1010.05
2017-04-12T08:11:55.652Z,1010.1
2017-04-12T08:12:36.178Z,1010.12
2017-04-12T08:13:16.863Z,1010.08
2017-04-12T08:13:57.276Z,1010.09
2017-04-12T08:14:37.741Z,1010.11
2017-04-12T08:16:50.839Z,1010.16
2017-04-12T08:17:31.331Z,1010.1
2017-04-12T08:18:11.870Z,1010.13
2017-04-12T08:18:52.328Z,1010.15
2017-04-12T08:19:32.808Z,1010.18
2017-04-12T08:20:13.286Z,1010.18
2017-04-12T08:20:55.849Z,1010.2
2017-04-12T08:21:36.435Z,1010.23
2017-04-12T08:22:17.036Z,1010.21
2017-04-12T08:22:57.557Z,1010.29
2017-04-12T08:24:55.256Z,1010.59
2017-04-12T08:25:35.795Z,1010.65
2017-04-12T08:26:16.389Z,1010.7
2017-04-12T08:26:56.885Z,1010.72
2017-04-12T08:27:37.363Z,1010.66
2017-04-12T08:28:17.933Z,1010.66
2017-04-12T08:28:58.522Z,1010.63
2017-04-12T08:29:38.991Z,1010.6
2017-04-12T08:30:19.625Z,1010.74
2017-04-12T08:31:00.196Z,1010.72
2017-04-12T08:31:40.657Z,1010.83
2017-04-12T08:33:53.436Z,1011.3
2017-04-12T08:34:33.949Z,1011.35
2017-04-12T08:35:14.373Z,1011.39
2017-04-12T08:35:54.934Z,1011.42
2017-04-12T08:36:35.498Z,1011.34
2017-04-12T08:37:16.117Z,1011.46
2017-04-12T08:37:56.626Z,1011.36
2017-04-12T08:40:09.493Z,1011.36
2017-04-12T08:40:50.071Z,1011.39
2017-04-12T08:41:30.600Z,1011.38
2017-04-12T08:42:11.104Z,1011.37
2017-04-12T08:44:08.800Z,1011.7
2017-04-12T08:44:49.318Z,1011.62
2017-04-12T08:45:29.872Z,1011.54
2017-04-12T08:46:10.441Z,1011.65
2017-04-12T08:46:51.030Z,1011.63
2017-04-12T08:47:31.520Z,1011.69
2017-04-12T08:48:12.055Z,1011.7
2017-04-12T08:48:52.598Z,1011.64
2017-04-12T08:49:33.163Z,1011.55
2017-04-12T08:50:13.800Z,1011.42
2017-04-12T08:50:54.216Z,1011.45
2017-04-12T08:51:34.837Z,1011.5
2017-04-12T08:52:16.191Z,1011.3
2017-04-12T08:52:56.834Z,1011.24
2017-04-12T08:53:37.452Z,1011.4
2017-04-12T08:54:18.079Z,1011.4
2017-04-12T08:54:58.595Z,1011.22
2017-04-12T08:55:39.182Z,1011.31
2017-04-12T08:56:19.663Z,1011.24
2017-04-12T08:57:00.186Z,1011.15
2017-04-12T08:57:40.759Z,1011.1
2017-04-12T08:58:21.328Z,1011.06
2017-04-12T08:59:02.591Z,1011.06
2017-04-12T08:59:43.170Z,1010.91
2017-04-12T09:00:23.750Z,1010.94
2017-04-12T09:01:04.285Z,1010.9
2017-04-12T09:01:44.921Z,1010.97
2017-04-12T09:03:37.549Z,1010.87
2017-04-12T09:04:18.666Z,1010.92
2017-04-12T09:04:59.015Z,1010.84
2017-04-12T09:05:39.580Z,1010.92
2017-04-12T09:06:20.469Z,1010.86
2017-04-12T09:07:01.057Z,1010.79
2017-04-12T09:07:41.610Z,1010.76
2017-04-12T09:08:22.129Z,1010.74
2017-04-12T09:10:19.812Z,1010.56
2017-04-12T09:11:01.124Z,1010.35
2017-04-12T09:11:41.661Z,1010.15
2017-04-12T09:13:34.401Z,1009.64
2017-04-12T09:14:14.957Z,1009.53
2017-04-12T09:14:55.540Z,1009.53
2017-04-12T09:15:36.114Z,1009.47
2017-04-12T09:16:16.702Z,1009.4
2017-04-12T09:16:57.287Z,1009.41
2017-04-12T09:17:37.835Z,1009.38
2017-04-12T09:18:18.414Z,1009.39
2017-04-12T09:18:58.975Z,1009.37
2017-04-12T09:19:39.535Z,1009.39
2017-04-12T09:20:20.104Z,1009.37
2017-04-12T09:21:00.683Z,1009.43
2017-04-12T09:21:41.264Z,1009.68
2017-04-12T09:22:21.787Z,1009.82
2017-04-12T09:23:02.328Z,1009.91
2017-04-12T09:23:42.911Z,1009.9
2017-04-12T09:24:23.509Z,1009.98
2017-04-12T09:25:04.097Z,1009.9
2017-04-12T09:25:44.596Z,1009.79
2017-04-12T09:26:25.206Z,1009.7
2017-04-12T09:27:05.812Z,1009.72
2017-04-12T09:27:46.409Z,1009.66
2017-04-12T09:28:27.001Z,1009.6
2017-04-12T09:29:07.570Z,1009.56
2017-04-12T09:29:48.098Z,1009.41
2017-04-12T09:30:28.636Z,1009.35
2017-04-12T09:31:09.173Z,1009.35
2017-04-12T09:31:50.395Z,1009.44
2017-04-12T09:32:31.991Z,1009.38
2017-04-12T09:33:12.591Z,1009.38
2017-04-12T09:33:53.282Z,1009.4
2017-04-12T09:34:33.804Z,1009.4
2017-04-12T09:35:14.399Z,1009.4
2017-04-12T09:35:54.972Z,1009.44
2017-04-12T09:36:35.572Z,1009.49
2017-04-12T09:37:16.116Z,1009.49
2017-04-12T09:37:56.769Z,1009.51
2017-04-12T09:38:37.305Z,1009.6
2017-04-12T09:39:17.820Z,1009.55
2017-04-12T09:39:58.410Z,1009.56
2017-04-12T09:40:38.886Z,1009.52
2017-04-12T09:41:19.372Z,1009.46
2017-04-12T09:41:59.831Z,1009.31
2017-04-12T09:42:40.407Z,1009.19
2017-04-12T09:43:20.850Z,1009.19
2017-04-12T09:44:01.378Z,1009.27
2017-04-12T09:44:41.878Z,1009.42
2017-04-12T09:45:22.477Z,1009.53
2017-04-12T09:46:02.963Z,1009.62
2017-04-12T09:46:44.655Z,1009.79
2017-04-12T09:47:25.209Z,1009.86
2017-04-12T09:48:05.673Z,1010.06
2017-04-12T09:48:46.303Z,1010.24
2017-04-12T09:49:26.846Z,1010.34
2017-04-12T09:50:07.381Z,1010.52
2017-04-12T09:50:47.890Z,1010.59
2017-04-12T09:51:28.399Z,1010.94
2017-04-12T09:52:08.868Z,1011.39
2017-04-12T09:52:49.371Z,1011.6
2017-04-12T09:53:29.980Z,1011.86